Time;durP1;ratioP1;P1;durP2;ratioP2;P2;SDS_P1;SDS_P2;PMS_P1;PMS_P2;Temp;Humidity;BMP_temperature;BMP_pressure;BME280_temperature;BME280_humidity;BME280_pressure;Samples;Min_cycle;Max_cycle;Signal;HPM_P1;HPM_P2
2022/03/02 00:01:09;;;;;;;22.23;10.50;;;1.00;99.90;;;;;;4179960;28;20483;-78
2022/03/02 00:03:11;;;;;;;22.90;10.27;;;1.70;99.90;;;;;;4185584;28;20462;-79
2022/03/02 00:05:14;;;;;;;19.93;9.70;;;0.90;99.90;;;;;;4183212;28;20499;-79
2022/03/02 00:07:16;;;;;;;22.80;9.77;;;0.90;99.90;;;;;;4182925;28;20481;-78
2022/03/02 00:09:18;;;;;;;20.90;10.13;;;0.90;99.90;;;;;;4182289;28;20466;-78
2022/03/02 00:11:21;;;;;;;23.83;10.67;;;0.90;99.90;;;;;;4185946;28;20461;-78
2022/03/02 00:13:23;;;;;;;22.63;10.43;;;0.90;99.90;;;;;;4181791;28;20475;-79
2022/03/02 00:15:25;;;;;;;22.17;10.03;;;0.80;99.90;;;;;;4177625;28;21026;-78
2022/03/02 00:17:27;;;;;;;22.33;10.07;;;0.90;99.90;;;;;;4183140;28;20460;-78
2022/03/02 00:19:29;;;;;;;24.30;9.93;;;0.80;99.90;;;;;;4186569;28;20469;-78
2022/03/02 00:21:31;;;;;;;18.40;9.73;;;0.80;99.90;;;;;;4177198;28;20462;-79
2022/03/02 00:23:34;;;;;;;21.67;10.17;;;0.80;99.90;;;;;;4191150;28;20454;-77
2022/03/02 00:25:35;;;;;;;23.20;10.27;;;0.80;99.90;;;;;;4189645;28;20469;-78
2022/03/02 00:27:38;;;;;;;18.50;9.10;;;0.80;99.90;;;;;;4189638;28;20474;-78
2022/03/02 00:29:40;;;;;;;21.57;10.30;;;0.70;99.90;;;;;;4185628;28;20567;-79
2022/03/02 00:31:42;;;;;;;21.20;10.20;;;0.70;99.90;;;;;;4181587;28;20489;-79
2022/03/02 00:33:44;;;;;;;20.23;9.37;;;0.70;99.90;;;;;;4182291;28;20469;-79
2022/03/02 00:35:45;;;;;;;20.67;9.43;;;0.70;99.90;;;;;;4183024;28;20491;-78
2022/03/02 00:37:47;;;;;;;16.63;8.80;;;0.70;99.90;;;;;;4180799;28;20505;-79
2022/03/02 00:39:49;;;;;;;18.77;8.87;;;0.70;99.90;;;;;;4183143;28;20571;-79
2022/03/02 00:41:52;;;;;;;23.90;9.37;;;0.70;99.90;;;;;;4180951;28;20465;-78
2022/03/02 00:43:55;;;;;;;19.20;9.50;;;0.70;99.90;;;;;;4173955;28;20483;-80
2022/03/02 00:45:57;;;;;;;25.00;10.77;;;0.70;99.90;;;;;;4168959;28;20494;-79
2022/03/02 00:47:59;;;;;;;20.33;9.47;;;0.60;99.90;;;;;;4174325;28;20465;-79
2022/03/02 00:50:02;;;;;;;20.10;10.43;;;0.60;99.90;;;;;;4183869;28;20483;-79
2022/03/02 00:52:06;;;;;;;20.03;9.57;;;0.60;99.90;;;;;;4181236;28;20543;-78
2022/03/02 00:54:08;;;;;;;21.27;10.27;;;0.60;99.90;;;;;;4173352;28;20915;-79
2022/03/02 00:56:10;;;;;;;21.53;10.03;;;0.60;99.90;;;;;;4180898;28;20459;-79
2022/03/02 00:58:12;;;;;;;18.70;9.57;;;0.50;99.90;;;;;;4183157;28;20465;-79
2022/03/02 01:00:16;;;;;;;21.83;9.50;;;0.50;99.90;;;;;;4180076;28;20858;-78
2022/03/02 01:02:18;;;;;;;18.77;9.40;;;0.50;99.90;;;;;;4176311;28;20468;-79
2022/03/02 01:04:20;;;;;;;21.60;10.03;;;0.50;99.90;;;;;;4176405;28;20868;-79
2022/03/02 01:06:21;;;;;;;21.53;10.60;;;0.50;99.90;;;;;;4181279;28;20913;-79
2022/03/02 01:08:23;;;;;;;20.40;10.37;;;0.50;99.90;;;;;;4184385;28;20460;-78
2022/03/02 01:10:25;;;;;;;20.77;10.07;;;0.40;99.90;;;;;;4177597;28;20544;-79
2022/03/02 01:12:27;;;;;;;20.80;10.17;;;0.40;99.90;;;;;;4167198;28;20521;-79
2022/03/02 01:14:29;;;;;;;21.27;10.17;;;0.50;99.90;;;;;;4174791;28;20475;-79
2022/03/02 01:16:33;;;;;;;23.50;10.50;;;0.30;99.90;;;;;;4177384;28;20519;-80
2022/03/02 01:18:34;;;;;;;22.73;10.23;;;0.30;99.90;;;;;;4180642;28;20462;-78
2022/03/02 01:20:36;;;;;;;26.07;10.87;;;0.30;99.90;;;;;;4251039;23;20493;-79
2022/03/02 01:22:39;;;;;;;20.97;9.57;;;0.30;99.90;;;;;;4189162;28;20476;-79
2022/03/02 01:24:41;;;;;;;22.43;10.80;;;0.30;99.90;;;;;;4187203;28;20531;-79
2022/03/02 01:26:44;;;;;;;22.33;10.97;;;0.40;99.90;;;;;;4172849;28;21027;-79
2022/03/02 01:28:46;;;;;;;25.00;10.53;;;0.20;99.90;;;;;;4180346;28;20478;-79
2022/03/02 01:30:48;;;;;;;22.80;10.07;;;0.20;99.90;;;;;;4179826;28;20999;-80
2022/03/02 01:32:51;;;;;;;21.13;10.17;;;0.20;99.90;;;;;;4181634;28;20485;-79
2022/03/02 01:34:53;;;;;;;21.83;10.50;;;0.20;99.90;;;;;;4177767;28;20526;-79
2022/03/02 01:36:54;;;;;;;20.17;9.90;;;0.90;99.90;;;;;;4181470;28;20552;-79
2022/03/02 01:38:56;;;;;;;23.13;9.83;;;0.20;99.90;;;;;;4180473;28;20469;-79
2022/03/02 01:40:58;;;;;;;21.23;9.40;;;0.20;99.90;;;;;;4179225;28;21141;-79
2022/03/02 01:43:00;;;;;;;22.43;9.57;;;0.20;99.90;;;;;;4177927;28;20481;-79
2022/03/02 01:45:02;;;;;;;18.33;9.43;;;0.20;99.90;;;;;;4179878;28;20500;-79
2022/03/02 01:47:05;;;;;;;20.90;9.60;;;0.30;99.90;;;;;;4181400;28;20463;-79
2022/03/02 01:49:09;;;;;;;22.63;9.90;;;0.30;99.90;;;;;;4169494;28;20873;-79
2022/03/02 01:51:11;;;;;;;22.47;9.87;;;0.30;99.90;;;;;;4181684;28;20488;-79
2022/03/02 01:53:12;;;;;;;19.97;9.63;;;0.30;99.90;;;;;;4177699;28;20463;-78
2022/03/02 01:55:15;;;;;;;18.93;9.60;;;0.30;99.90;;;;;;4177396;28;20973;-79
2022/03/02 01:57:17;;;;;;;20.20;9.20;;;0.30;99.90;;;;;;4175350;28;20481;-79
2022/03/02 01:59:19;;;;;;;19.60;8.70;;;0.30;99.90;;;;;;4180433;28;20485;-79
2022/03/02 02:01:21;;;;;;;19.70;9.83;;;0.30;99.90;;;;;;4180847;28;20928;-78
2022/03/02 02:03:23;;;;;;;21.50;10.07;;;0.30;99.90;;;;;;4180605;28;20525;-79
2022/03/02 02:05:26;;;;;;;20.30;9.60;;;0.30;99.90;;;;;;4178586;28;20487;-79
2022/03/02 02:07:28;;;;;;;20.07;9.63;;;0.30;99.90;;;;;;4188645;28;20453;-79
2022/03/02 02:09:30;;;;;;;21.67;9.73;;;0.30;99.90;;;;;;4193293;28;20458;-78
2022/03/02 02:11:33;;;;;;;18.67;9.43;;;0.70;99.90;;;;;;4180876;28;20473;-79
2022/03/02 02:13:35;;;;;;;18.23;9.17;;;0.30;99.90;;;;;;4177660;28;20469;-81
2022/03/02 02:15:37;;;;;;;19.07;9.17;;;0.40;99.90;;;;;;4181158;28;20459;-79
2022/03/02 02:17:40;;;;;;;18.67;9.37;;;0.30;99.90;;;;;;4181002;28;20827;-79
2022/03/02 02:19:42;;;;;;;19.37;9.80;;;0.30;99.90;;;;;;4187474;28;20461;-79
2022/03/02 02:21:46;;;;;;;21.10;9.80;;;0.30;99.90;;;;;;4194111;28;20460;-79
2022/03/02 02:23:50;;;;;;;21.20;10.33;;;0.30;99.90;;;;;;4172007;28;20832;-78
2022/03/02 02:25:52;;;;;;;18.07;9.90;;;0.30;99.90;;;;;;4180016;28;20546;-79
2022/03/02 02:27:54;;;;;;;24.70;10.77;;;0.30;99.90;;;;;;4177439;28;20460;-79
2022/03/02 02:29:56;;;;;;;21.90;9.97;;;0.30;99.90;;;;;;4187909;28;20509;-79
2022/03/02 02:31:59;;;;;;;17.67;9.00;;;0.30;99.90;;;;;;4176321;28;20929;-79
2022/03/02 02:34:01;;;;;;;21.30;9.90;;;0.30;99.90;;;;;;4179103;28;20476;-79
2022/03/02 02:36:03;;;;;;;19.27;9.73;;;0.30;99.90;;;;;;4180656;28;20471;-79
2022/03/02 02:38:06;;;;;;;22.50;10.27;;;1.00;99.90;;;;;;4179575;28;20846;-79
2022/03/02 02:40:10;;;;;;;17.37;9.27;;;0.30;99.90;;;;;;4179847;28;20584;-79
2022/03/02 02:42:12;;;;;;;20.80;9.93;;;0.30;99.90;;;;;;4180311;28;20649;-79
2022/03/02 02:44:13;;;;;;;21.10;9.73;;;0.30;99.90;;;;;;4184919;28;20461;-79
2022/03/02 02:46:15;;;;;;;23.17;10.37;;;0.20;99.90;;;;;;4179971;28;20513;-79
2022/03/02 02:48:17;;;;;;;20.97;9.30;;;0.20;99.90;;;;;;4176464;28;20540;-79
2022/03/02 02:50:23;;;;;;;19.53;9.30;;;0.20;99.90;;;;;;4188145;28;20481;-78
2022/03/02 02:52:25;;;;;;;18.93;9.53;;;0.20;99.90;;;;;;4182014;28;20454;-79
2022/03/02 02:54:28;;;;;;;19.80;10.00;;;0.20;99.90;;;;;;4177648;28;20939;-79
2022/03/02 02:56:30;;;;;;;19.80;9.70;;;0.40;99.90;;;;;;4180942;28;20465;-79
2022/03/02 02:58:31;;;;;;;21.93;10.10;;;0.10;99.90;;;;;;4180339;28;21008;-79
2022/03/02 03:00:36;;;;;;;19.57;10.03;;;0.10;99.90;;;;;;4185493;28;20469;-78
2022/03/02 03:02:38;;;;;;;19.23;10.27;;;0.10;99.90;;;;;;4183857;28;20560;-79
2022/03/02 03:04:40;;;;;;;22.57;10.53;;;0.10;99.90;;;;;;4185953;28;20450;-78
2022/03/02 03:06:42;;;;;;;21.23;10.53;;;0.00;99.90;;;;;;4182867;28;20989;-79
2022/03/02 03:08:46;;;;;;;22.77;11.03;;;0.00;99.90;;;;;;4182535;28;20461;-81
2022/03/02 03:10:49;;;;;;;21.00;9.90;;;0.00;99.90;;;;;;4183847;28;20501;-78
2022/03/02 03:12:51;;;;;;;22.33;10.60;;;0.00;99.90;;;;;;4184113;28;20479;-79
2022/03/02 03:14:53;;;;;;;20.03;10.47;;;0.00;99.90;;;;;;4182600;28;20473;-79
2022/03/02 03:16:55;;;;;;;19.20;9.93;;;0.00;99.90;;;;;;4184818;28;20468;-78
2022/03/02 03:18:56;;;;;;;19.83;10.60;;;0.00;99.90;;;;;;4188849;28;20551;-79
2022/03/02 03:20:58;;;;;;;23.17;9.67;;;0.00;99.90;;;;;;4184626;28;20488;-80
2022/03/02 03:23:00;;;;;;;21.33;10.33;;;-0.10;99.90;;;;;;4182750;28;20979;-78
2022/03/02 03:25:03;;;;;;;20.63;10.87;;;0.00;99.90;;;;;;4177438;28;20481;-78
2022/03/02 03:27:06;;;;;;;21.87;10.67;;;-0.10;99.90;;;;;;4184472;28;20532;-78
2022/03/02 03:29:08;;;;;;;22.07;10.03;;;-0.10;99.90;;;;;;4182627;28;20476;-78
2022/03/02 03:31:10;;;;;;;20.40;10.33;;;0.10;99.90;;;;;;4186805;28;20500;-78
2022/03/02 03:33:12;;;;;;;19.73;10.20;;;-0.10;99.90;;;;;;4184607;28;20510;-79
2022/03/02 03:35:15;;;;;;;20.63;10.33;;;-0.10;99.90;;;;;;4188860;28;20752;-79
2022/03/02 03:37:17;;;;;;;22.80;10.33;;;0.60;99.90;;;;;;4190410;28;20461;-78
2022/03/02 03:39:19;;;;;;;22.73;9.97;;;-0.10;99.90;;;;;;4183947;28;20524;-79
2022/03/02 03:41:20;;;;;;;20.83;9.47;;;-0.10;99.90;;;;;;4178192;28;20610;-79
2022/03/02 03:43:23;;;;;;;21.23;9.90;;;-0.20;99.90;;;;;;4172494;28;20482;-79
2022/03/02 03:45:25;;;;;;;21.73;10.40;;;-0.10;99.90;;;;;;4187028;28;20524;-78
2022/03/02 03:47:27;;;;;;;23.43;10.13;;;-0.20;99.90;;;;;;4184827;28;20457;-79
2022/03/02 03:49:29;;;;;;;21.60;10.87;;;-0.20;99.90;;;;;;4185463;28;20453;-79
2022/03/02 03:51:31;;;;;;;22.87;10.93;;;-0.20;99.90;;;;;;4173080;28;21006;-78
2022/03/02 03:53:33;;;;;;;21.80;11.13;;;-0.20;99.90;;;;;;4181785;28;20461;-79
2022/03/02 03:55:35;;;;;;;24.00;10.80;;;-0.20;99.90;;;;;;4183311;28;20467;-79
2022/03/02 03:57:36;;;;;;;24.90;11.57;;;-0.20;99.90;;;;;;4187091;28;20482;-79
2022/03/02 03:59:40;;;;;;;23.40;10.70;;;-0.20;99.90;;;;;;4183514;28;20462;-79
2022/03/02 04:01:42;;;;;;;20.37;10.27;;;-0.20;99.90;;;;;;4182179;28;20892;-78
2022/03/02 04:03:43;;;;;;;26.13;10.93;;;-0.20;99.90;;;;;;4182977;28;20493;-78
2022/03/02 04:05:45;;;;;;;20.23;10.07;;;-0.20;99.90;;;;;;4183538;28;20528;-79
2022/03/02 04:07:47;;;;;;;20.20;9.93;;;-0.20;99.90;;;;;;4184071;28;20468;-79
2022/03/02 04:09:49;;;;;;;20.97;10.60;;;-0.20;99.90;;;;;;4183963;28;20468;-79
2022/03/02 04:11:51;;;;;;;19.93;10.03;;;-0.20;99.90;;;;;;4182553;28;20461;-79
2022/03/02 04:13:54;;;;;;;21.10;10.77;;;-0.20;99.90;;;;;;4182572;28;20548;-78
2022/03/02 04:15:57;;;;;;;20.83;9.90;;;-0.20;99.90;;;;;;4179709;28;20486;-77
2022/03/02 04:17:59;;;;;;;27.03;10.90;;;-0.30;99.90;;;;;;4183085;28;20538;-79
2022/03/02 04:20:01;;;;;;;21.33;10.60;;;-0.30;99.90;;;;;;4180628;28;20509;-78
2022/03/02 04:22:03;;;;;;;23.77;11.17;;;-0.30;99.90;;;;;;4181955;28;20481;-81
2022/03/02 04:24:05;;;;;;;24.43;10.73;;;-0.30;99.90;;;;;;4174878;28;20826;-81
2022/03/02 04:26:07;;;;;;;20.93;10.03;;;-0.30;99.90;;;;;;4178926;28;20894;-81
2022/03/02 04:28:09;;;;;;;21.73;10.77;;;-0.30;99.90;;;;;;4177760;28;20981;-81
2022/03/02 04:30:13;;;;;;;27.40;10.37;;;-0.30;99.90;;;;;;4176801;28;20580;-81
2022/03/02 04:32:16;;;;;;;23.83;10.67;;;-0.30;99.90;;;;;;4177761;28;20458;-79
2022/03/02 04:34:18;;;;;;;22.07;10.17;;;-0.40;99.90;;;;;;4177343;28;20961;-78
2022/03/02 04:36:20;;;;;;;22.83;10.80;;;-0.40;99.90;;;;;;4174032;28;20473;-79
2022/03/02 04:38:22;;;;;;;22.93;10.60;;;-0.40;99.90;;;;;;4182421;28;20917;-79
2022/03/02 04:40:23;;;;;;;21.80;10.33;;;-0.40;99.90;;;;;;4182082;28;20488;-79
2022/03/02 04:42:25;;;;;;;23.70;10.43;;;-0.40;99.90;;;;;;4181935;28;20461;-79
2022/03/02 04:44:27;;;;;;;22.67;10.70;;;-0.40;99.90;;;;;;4179135;28;20466;-81
2022/03/02 04:46:29;;;;;;;21.00;10.47;;;-0.40;99.90;;;;;;4165090;28;20498;-81
2022/03/02 04:48:32;;;;;;;22.53;11.63;;;-0.40;99.90;;;;;;4177680;28;20468;-79
2022/03/02 04:50:34;;;;;;;23.73;11.13;;;-0.40;99.90;;;;;;4181241;28;20476;-79
2022/03/02 04:52:36;;;;;;;22.57;10.33;;;-0.40;99.90;;;;;;4177137;28;20473;-80
2022/03/02 04:56:57;;;;;;;24.77;11.20;;;-0.40;99.90;;;;;;4182695;28;20451;-80
2022/03/02 04:59:01;;;;;;;22.90;10.03;;;-0.40;99.90;;;;;;4182451;28;20452;-81
2022/03/02 05:01:03;;;;;;;24.90;10.27;;;-0.40;99.90;;;;;;4174598;28;20496;-80
2022/03/02 05:03:06;;;;;;;24.20;11.27;;;-0.40;99.90;;;;;;4171144;28;20535;-79
2022/03/02 05:05:12;;;;;;;22.57;10.33;;;-0.40;99.90;;;;;;4179125;28;20491;-80
2022/03/02 05:07:13;;;;;;;19.77;10.57;;;-0.40;99.90;;;;;;4192291;28;20504;-80
2022/03/02 05:09:15;;;;;;;24.63;10.97;;;-0.40;99.90;;;;;;4191289;28;20476;-80
2022/03/02 05:11:17;;;;;;;21.67;10.20;;;-0.40;99.90;;;;;;4181546;28;20535;-80
2022/03/02 05:13:19;;;;;;;21.20;10.30;;;-0.40;99.90;;;;;;4184884;28;20469;-78
2022/03/02 05:15:21;;;;;;;21.30;10.63;;;-0.40;99.90;;;;;;4182159;28;20474;-81
2022/03/02 05:17:23;;;;;;;23.83;10.80;;;-0.50;99.90;;;;;;4184946;28;20507;-78
2022/03/02 05:19:25;;;;;;;18.70;10.03;;;-0.50;99.90;;;;;;4182546;28;20509;-81
2022/03/02 05:21:28;;;;;;;19.60;10.33;;;-0.50;99.90;;;;;;4181582;28;20497;-80
2022/03/02 05:23:30;;;;;;;22.13;10.40;;;-0.50;99.90;;;;;;4178074;28;20457;-80
2022/03/02 05:25:32;;;;;;;23.63;10.40;;;-0.50;99.90;;;;;;4172463;28;20466;-81
2022/03/02 05:27:34;;;;;;;21.33;10.80;;;-0.50;99.90;;;;;;4176227;28;20493;-79
2022/03/02 05:29:36;;;;;;;27.13;11.70;;;-0.50;99.90;;;;;;4180031;28;20465;-79
2022/03/02 05:31:38;;;;;;;22.03;11.30;;;-0.50;99.90;;;;;;4180848;28;21004;-79
2022/03/02 05:33:40;;;;;;;24.50;11.60;;;-0.50;99.90;;;;;;4174621;28;20465;-78
2022/03/02 05:35:42;;;;;;;27.40;11.00;;;-0.60;99.90;;;;;;4177147;28;20454;-79
2022/03/02 05:37:45;;;;;;;23.73;10.50;;;-0.60;99.90;;;;;;4182431;28;20511;-81
2022/03/02 05:39:47;;;;;;;21.90;9.97;;;-0.60;99.90;;;;;;4179959;28;20465;-79
2022/03/02 05:41:49;;;;;;;23.10;10.60;;;-0.60;99.90;;;;;;4180265;28;20453;-79
2022/03/02 05:43:53;;;;;;;21.13;10.43;;;-0.60;99.90;;;;;;4179392;28;20470;-79
2022/03/02 05:45:54;;;;;;;22.30;10.30;;;-0.60;99.90;;;;;;4178099;28;21012;-79
2022/03/02 05:47:56;;;;;;;22.83;10.00;;;-0.70;99.90;;;;;;4172035;28;20485;-79
2022/03/02 05:49:58;;;;;;;19.80;10.17;;;-0.70;99.90;;;;;;4180399;28;20460;-78
2022/03/02 05:52:00;;;;;;;23.27;10.47;;;-0.70;99.90;;;;;;4183599;28;20469;-79
2022/03/02 05:54:05;;;;;;;20.50;10.23;;;-0.70;99.90;;;;;;4172284;28;20546;-78
2022/03/02 05:56:07;;;;;;;20.47;9.97;;;-0.70;99.90;;;;;;4179944;28;20448;-79
2022/03/02 05:58:09;;;;;;;22.60;9.87;;;-0.70;99.90;;;;;;4163696;28;20483;-79
2022/03/02 06:00:13;;;;;;;22.73;10.00;;;-0.70;99.90;;;;;;4174462;28;20555;-79
2022/03/02 06:02:15;;;;;;;26.43;10.97;;;-0.70;99.90;;;;;;4181374;28;20457;-79
2022/03/02 06:04:17;;;;;;;27.33;12.07;;;-0.80;99.90;;;;;;4178593;28;20453;-79
2022/03/02 06:06:19;;;;;;;22.13;10.97;;;-0.80;99.90;;;;;;4181577;28;20476;-78
2022/03/02 06:08:21;;;;;;;25.17;10.80;;;-0.80;99.90;;;;;;4187330;28;20882;-79
2022/03/02 06:10:25;;;;;;;22.53;10.20;;;-0.80;99.90;;;;;;4181857;28;20834;-80
2022/03/02 06:12:27;;;;;;;21.13;11.27;;;-0.80;99.90;;;;;;4182996;28;20456;-80
2022/03/02 06:14:29;;;;;;;20.40;9.67;;;-0.80;99.90;;;;;;4180524;28;20523;-79
2022/03/02 06:16:32;;;;;;;21.50;10.13;;;-0.80;99.90;;;;;;4180381;28;20470;-79
2022/03/02 06:18:34;;;;;;;24.10;10.13;;;-0.80;99.90;;;;;;4180703;28;20572;-80
2022/03/02 06:20:36;;;;;;;24.73;9.87;;;-0.80;99.90;;;;;;4185173;28;20473;-79
2022/03/02 06:22:38;;;;;;;23.20;10.27;;;-0.80;99.90;;;;;;4181394;28;20879;-79
2022/03/02 06:24:41;;;;;;;21.93;10.03;;;-0.80;99.90;;;;;;4180895;28;20499;-80
2022/03/02 06:26:45;;;;;;;20.43;9.67;;;-0.80;99.90;;;;;;4180942;28;20503;-80
2022/03/02 06:28:47;;;;;;;25.30;10.23;;;-0.80;99.90;;;;;;4185824;28;20873;-80
2022/03/02 06:30:49;;;;;;;21.23;10.40;;;-0.80;99.90;;;;;;4180469;28;20488;-80
2022/03/02 06:32:50;;;;;;;22.43;10.10;;;-0.80;99.90;;;;;;4187204;28;20462;-80
2022/03/02 06:34:52;;;;;;;22.87;9.90;;;-0.80;99.90;;;;;;4183900;28;20445;-80
2022/03/02 06:36:54;;;;;;;24.27;10.97;;;-0.80;99.90;;;;;;4185191;28;20469;-78
2022/03/02 06:38:56;;;;;;;19.13;10.03;;;-0.70;99.90;;;;;;4181218;28;20902;-79
2022/03/02 06:41:02;;;;;;;22.63;10.63;;;-0.70;99.90;;;;;;4185455;28;20489;-80
2022/03/02 06:43:07;;;;;;;21.73;10.13;;;-0.60;99.90;;;;;;4183887;28;20453;-79
2022/03/02 06:45:12;;;;;;;22.23;10.07;;;-0.60;99.90;;;;;;4186755;28;20476;-80
2022/03/02 06:47:17;;;;;;;20.40;10.23;;;-0.50;99.90;;;;;;4186848;28;20504;-80
2022/03/02 06:49:26;;;;;;;19.07;9.10;;;-0.50;99.90;;;;;;4180158;28;20539;-80
2022/03/02 06:51:30;;;;;;;19.73;9.63;;;-0.50;99.90;;;;;;4179633;28;20469;-79
2022/03/02 06:53:35;;;;;;;23.07;9.80;;;-0.40;99.90;;;;;;4180253;28;20512;-80
2022/03/02 06:55:39;;;;;;;20.53;10.40;;;-0.40;99.90;;;;;;4182121;28;20988;-80
2022/03/02 06:57:41;;;;;;;18.50;9.87;;;-0.40;99.90;;;;;;4180722;28;20828;-80
2022/03/02 06:59:50;;;;;;;18.50;9.47;;;-0.30;99.90;;;;;;4184410;28;20445;-80
2022/03/02 07:01:53;;;;;;;19.50;9.80;;;-0.30;99.90;;;;;;4182167;28;20472;-80
2022/03/02 07:03:57;;;;;;;21.07;10.03;;;-0.30;99.90;;;;;;4184715;28;21000;-80
2022/03/02 07:06:00;;;;;;;17.37;9.00;;;-0.20;99.90;;;;;;4181550;28;20462;-79
2022/03/02 07:08:03;;;;;;;18.07;9.57;;;-0.20;99.90;;;;;;4180296;28;20496;-80
2022/03/02 07:10:07;;;;;;;20.20;9.67;;;-0.20;99.90;;;;;;4184067;28;20493;-79
2022/03/02 07:12:11;;;;;;;19.27;10.00;;;-0.10;99.90;;;;;;4182862;28;20459;-80
2022/03/02 07:14:15;;;;;;;18.07;8.80;;;-0.10;99.90;;;;;;4183236;28;20450;-79
2022/03/02 07:16:21;;;;;;;19.47;9.80;;;-0.10;99.90;;;;;;4178789;28;20470;-80
2022/03/02 07:18:23;;;;;;;19.43;9.90;;;-0.10;99.90;;;;;;4181508;28;20454;-79
2022/03/02 07:20:26;;;;;;;21.33;9.57;;;0.00;99.90;;;;;;4208309;23;20500;-75
2022/03/02 07:22:36;;;;;;;23.63;10.17;;;0.00;99.90;;;;;;4182654;28;20454;-78
2022/03/02 07:24:41;;;;;;;21.93;10.57;;;0.00;99.90;;;;;;4176257;28;20465;-76
2022/03/02 07:26:46;;;;;;;20.70;10.37;;;0.10;99.90;;;;;;4173919;28;20468;-76
2022/03/02 07:28:49;;;;;;;21.20;10.07;;;0.10;99.90;;;;;;4169317;28;20470;-75
2022/03/02 07:30:53;;;;;;;22.03;10.70;;;0.30;99.90;;;;;;4165501;28;20565;-78
2022/03/02 07:33:00;;;;;;;25.90;11.97;;;0.10;99.90;;;;;;4149138;28;20474;-75
2022/03/02 07:35:04;;;;;;;27.03;11.70;;;0.20;99.90;;;;;;4152824;28;20477;-76
2022/03/02 07:37:09;;;;;;;26.13;11.73;;;0.20;99.90;;;;;;4152001;28;20496;-77
2022/03/02 07:39:12;;;;;;;28.77;11.67;;;0.20;99.90;;;;;;4151893;28;20495;-80
2022/03/02 07:41:15;;;;;;;21.90;11.17;;;0.30;99.90;;;;;;4150780;28;20938;-77
2022/03/02 07:43:17;;;;;;;20.97;11.13;;;0.30;99.90;;;;;;4151414;28;20486;-76
2022/03/02 07:45:19;;;;;;;25.47;11.67;;;0.30;99.90;;;;;;4153428;28;20964;-81
2022/03/02 07:47:21;;;;;;;21.70;10.87;;;0.30;99.90;;;;;;4152573;28;20584;-77
2022/03/02 07:49:25;;;;;;;30.03;12.47;;;0.30;99.90;;;;;;4149750;28;20515;-77
2022/03/02 07:51:27;;;;;;;25.77;11.93;;;0.30;99.90;;;;;;4154404;28;20564;-76
2022/03/02 07:53:38;;;;;;;23.80;11.57;;;0.40;99.90;;;;;;4152443;28;20748;-76
2022/03/02 07:55:42;;;;;;;24.83;11.87;;;0.40;99.90;;;;;;4150781;28;20477;-75
2022/03/02 07:57:45;;;;;;;22.37;11.47;;;0.40;99.90;;;;;;4147549;28;20889;-75
2022/03/02 07:59:47;;;;;;;23.53;11.70;;;0.40;99.90;;;;;;4149736;28;20517;-75
2022/03/02 08:01:49;;;;;;;22.87;11.10;;;0.50;99.90;;;;;;4150936;28;20494;-76
2022/03/02 08:03:51;;;;;;;24.17;11.77;;;0.50;99.90;;;;;;4147147;28;20882;-76
2022/03/02 08:05:58;;;;;;;27.17;12.23;;;0.60;99.90;;;;;;4152427;28;20522;-76
2022/03/02 08:08:00;;;;;;;23.53;11.57;;;0.60;99.90;;;;;;4152265;28;20499;-77
2022/03/02 08:10:03;;;;;;;21.07;11.07;;;0.70;99.90;;;;;;4152130;28;20464;-76
2022/03/02 08:12:07;;;;;;;27.73;11.73;;;0.70;99.90;;;;;;4162407;28;20501;-79
2022/03/02 08:14:09;;;;;;;27.27;12.17;;;0.80;99.90;;;;;;4163919;28;20476;-76
2022/03/02 08:16:13;;;;;;;25.03;12.10;;;0.80;99.90;;;;;;4163458;28;20473;-76
2022/03/02 08:18:14;;;;;;;24.60;11.80;;;0.90;99.90;;;;;;4161194;28;21106;-77
2022/03/02 08:20:16;;;;;;;25.67;12.97;;;1.00;99.90;;;;;;4162505;28;20481;-77
2022/03/02 08:22:21;;;;;;;26.20;12.43;;;1.10;99.90;;;;;;4156425;28;20477;-78
2022/03/02 08:24:25;;;;;;;25.97;12.37;;;1.20;99.90;;;;;;4151116;28;20556;-77
2022/03/02 08:26:30;;;;;;;22.97;11.60;;;1.20;99.90;;;;;;4149219;28;20486;-76
2022/03/02 08:28:34;;;;;;;25.77;12.63;;;1.30;99.90;;;;;;4152187;28;20831;-76
2022/03/02 08:30:37;;;;;;;24.97;12.77;;;1.40;99.90;;;;;;4149541;28;20497;-76
2022/03/02 08:32:42;;;;;;;24.83;12.53;;;1.50;99.90;;;;;;4155242;28;20458;-76
2022/03/02 08:34:44;;;;;;;25.83;12.50;;;1.60;99.90;;;;;;4149875;28;20475;-76
2022/03/02 08:36:47;;;;;;;25.57;12.63;;;1.60;99.90;;;;;;4154406;28;20457;-76
2022/03/02 08:38:52;;;;;;;25.70;12.90;;;1.70;99.90;;;;;;4154026;28;20973;-77
2022/03/02 08:40:54;;;;;;;24.00;12.50;;;1.80;99.90;;;;;;4151892;28;20531;-77
2022/03/02 08:42:56;;;;;;;24.67;12.50;;;1.90;99.90;;;;;;4148316;28;20474;-76
2022/03/02 08:44:58;;;;;;;26.83;12.83;;;1.90;99.90;;;;;;4150346;28;20840;-79
2022/03/02 08:47:00;;;;;;;25.80;12.23;;;2.00;99.90;;;;;;4151696;28;20454;-78
2022/03/02 08:49:02;;;;;;;23.73;12.53;;;2.10;99.90;;;;;;4151264;28;21242;-78
2022/03/02 08:51:04;;;;;;;22.83;12.03;;;2.20;99.90;;;;;;4152048;28;20498;-80
2022/03/02 08:53:06;;;;;;;24.03;12.53;;;2.30;99.90;;;;;;4151222;28;20970;-80
2022/03/02 08:55:10;;;;;;;24.83;12.43;;;2.40;99.90;;;;;;4153170;28;20462;-75
2022/03/02 08:57:16;;;;;;;23.67;11.77;;;2.40;99.90;;;;;;4149252;28;20479;-77
2022/03/02 08:59:18;;;;;;;23.13;11.67;;;2.50;99.90;;;;;;4149123;28;20466;-80
2022/03/02 09:01:21;;;;;;;22.20;12.23;;;2.60;99.90;;;;;;4151171;28;20518;-78
2022/03/02 09:03:23;;;;;;;23.30;11.90;;;2.70;99.90;;;;;;4152363;28;20465;-80
2022/03/02 09:05:28;;;;;;;23.37;12.20;;;2.70;99.90;;;;;;4152079;28;20552;-78
2022/03/02 09:07:30;;;;;;;22.40;11.23;;;2.80;99.90;;;;;;4150737;28;21003;-76
2022/03/02 09:09:32;;;;;;;25.23;11.47;;;2.90;99.90;;;;;;4154105;28;20818;-79
2022/03/02 09:11:37;;;;;;;26.40;11.87;;;3.00;99.90;;;;;;4150885;28;20685;-79
2022/03/02 09:13:40;;;;;;;23.80;11.90;;;3.00;99.90;;;;;;4151174;28;20474;-80
2022/03/02 09:15:42;;;;;;;23.17;10.70;;;3.10;99.90;;;;;;4149687;28;20515;-79
2022/03/02 09:17:44;;;;;;;20.20;11.23;;;3.20;99.90;;;;;;4153002;28;20458;-78
2022/03/02 09:19:47;;;;;;;19.50;10.53;;;3.20;99.90;;;;;;4152893;28;20467;-81
2022/03/02 09:21:49;;;;;;;20.17;10.33;;;3.30;99.90;;;;;;4149571;28;20917;-79
2022/03/02 09:23:55;;;;;;;21.57;9.97;;;3.30;99.90;;;;;;4150388;28;20526;-79
2022/03/02 09:26:04;;;;;;;21.87;10.07;;;3.40;99.90;;;;;;4152760;28;20458;-77
2022/03/02 09:28:11;;;;;;;20.97;10.97;;;3.40;99.90;;;;;;4150787;28;21007;-76
2022/03/02 09:30:14;;;;;;;21.17;11.00;;;3.50;99.90;;;;;;4149481;28;20505;-75
2022/03/02 09:32:17;;;;;;;19.63;10.20;;;3.60;99.90;;;;;;4147558;28;20489;-75
2022/03/02 09:34:25;;;;;;;18.70;10.60;;;3.60;99.90;;;;;;4147928;28;20461;-78
2022/03/02 09:36:27;;;;;;;19.83;10.07;;;3.60;99.90;;;;;;4145328;28;20474;-76
2022/03/02 09:38:32;;;;;;;19.37;10.80;;;3.70;99.90;;;;;;4147502;28;20458;-76
2022/03/02 09:40:35;;;;;;;18.53;10.23;;;3.70;99.90;;;;;;4148755;28;20478;-77
2022/03/02 09:42:41;;;;;;;20.63;9.67;;;3.70;99.90;;;;;;4147231;28;20485;-76
2022/03/02 09:44:46;;;;;;;21.63;10.47;;;3.70;99.90;;;;;;4150458;28;20486;-76
2022/03/02 09:46:50;;;;;;;18.60;9.50;;;3.80;99.90;;;;;;4148938;28;20555;-75
2022/03/02 09:48:58;;;;;;;21.50;9.87;;;3.90;99.90;;;;;;4149387;28;20545;-77
2022/03/02 09:51:03;;;;;;;20.73;10.33;;;3.90;99.90;;;;;;4150416;28;20920;-75
2022/03/02 09:53:12;;;;;;;18.03;9.30;;;4.00;99.90;;;;;;4148986;28;20556;-76
2022/03/02 09:55:21;;;;;;;16.67;8.83;;;4.00;98.80;;;;;;4149517;28;20473;-75
2022/03/02 09:57:24;;;;;;;16.10;9.03;;;4.10;97.90;;;;;;4150698;28;20474;-75
2022/03/02 09:59:26;;;;;;;17.83;9.03;;;4.10;98.10;;;;;;4149142;28;20536;-78
2022/03/02 10:01:33;;;;;;;16.30;9.00;;;4.20;97.10;;;;;;4148369;28;20572;-75
2022/03/02 10:03:37;;;;;;;17.80;8.83;;;4.30;96.90;;;;;;4152610;28;20885;-75
2022/03/02 10:05:45;;;;;;;16.57;8.63;;;4.50;96.50;;;;;;4153434;28;20474;-77
2022/03/02 10:07:57;;;;;;;17.83;9.27;;;4.60;96.50;;;;;;4151255;28;20988;-77
2022/03/02 10:10:06;;;;;;;16.20;8.77;;;4.70;94.80;;;;;;4151514;28;20961;-75
2022/03/02 10:12:11;;;;;;;19.00;9.40;;;4.80;92.60;;;;;;4148424;28;20463;-74
2022/03/02 10:14:13;;;;;;;19.43;9.27;;;4.90;91.50;;;;;;4148149;28;20457;-75
2022/03/02 10:16:20;;;;;;;18.93;9.20;;;5.00;90.50;;;;;;4153265;28;20514;-76
2022/03/02 10:18:26;;;;;;;17.93;9.20;;;5.00;89.90;;;;;;4148263;28;20574;-76
2022/03/02 10:20:31;;;;;;;18.10;9.13;;;5.10;85.40;;;;;;4153587;28;20507;-76
2022/03/02 10:23:05;;;;;;;17.67;9.23;;;5.20;83.80;;;;;;4153740;28;20496;-77
2022/03/02 10:25:09;;;;;;;16.20;8.80;;;5.20;79.60;;;;;;4145236;28;21243;-75
2022/03/02 10:27:21;;;;;;;18.50;9.07;;;5.30;78.80;;;;;;4151867;28;20536;-76
2022/03/02 10:29:30;;;;;;;16.50;8.00;;;5.30;73.70;;;;;;4153865;28;21416;-75
2022/03/02 10:31:46;;;;;;;14.93;8.27;;;5.40;70.70;;;;;;4151762;28;20919;-75
2022/03/02 10:33:56;;;;;;;16.10;8.13;;;5.50;68.90;;;;;;4152223;28;20461;-76